sensor_id;sensor_type;location;lat;lon;timestamp;P1;durP1;ratioP1;P2;durP2;ratioP2
286;SDS011;127;48.770;9.212;2023-06-22T00:01:52;18.50;;;10.60;;
286;SDS011;127;48.770;9.212;2023-06-22T00:04:21;18.97;;;10.73;;
286;SDS011;127;48.770;9.212;2023-06-22T00:06:53;15.50;;;9.10;;
286;SDS011;127;48.770;9.212;2023-06-22T00:09:21;16.07;;;10.37;;
286;SDS011;127;48.770;9.212;2023-06-22T00:11:57;16.70;;;9.13;;
286;SDS011;127;48.770;9.212;2023-06-22T00:14:28;21.40;;;10.73;;
286;SDS011;127;48.770;9.212;2023-06-22T00:17:00;21.33;;;10.27;;
286;SDS011;127;48.770;9.212;2023-06-22T00:19:29;17.67;;;10.10;;
286;SDS011;127;48.770;9.212;2023-06-22T00:22:03;14.40;;;9.70;;
286;SDS011;127;48.770;9.212;2023-06-22T00:24:41;16.10;;;9.20;;
286;SDS011;127;48.770;9.212;2023-06-22T00:27:10;20.93;;;10.13;;
286;SDS011;127;48.770;9.212;2023-06-22T00:29:40;19.13;;;9.03;;
286;SDS011;127;48.770;9.212;2023-06-22T00:32:13;17.80;;;9.47;;
286;SDS011;127;48.770;9.212;2023-06-22T00:34:44;13.90;;;8.60;;
286;SDS011;127;48.770;9.212;2023-06-22T00:37:18;19.40;;;10.97;;
286;SDS011;127;48.770;9.212;2023-06-22T00:39:47;18.10;;;11.00;;
286;SDS011;127;48.770;9.212;2023-06-22T00:42:20;15.50;;;10.00;;
286;SDS011;127;48.770;9.212;2023-06-22T00:44:53;21.93;;;10.13;;
286;SDS011;127;48.770;9.212;2023-06-22T00:47:25;15.27;;;9.30;;
286;SDS011;127;48.770;9.212;2023-06-22T00:49:54;17.87;;;10.07;;
286;SDS011;127;48.770;9.212;2023-06-22T00:52:23;16.43;;;9.50;;
286;SDS011;127;48.770;9.212;2023-06-22T00:54:54;15.97;;;8.93;;
286;SDS011;127;48.770;9.212;2023-06-22T00:57:26;18.33;;;9.40;;
286;SDS011;127;48.770;9.212;2023-06-22T00:59:55;17.77;;;9.93;;
286;SDS011;127;48.770;9.212;2023-06-22T01:02:42;14.87;;;9.47;;
286;SDS011;127;48.770;9.212;2023-06-22T01:05:14;21.23;;;10.80;;
286;SDS011;127;48.770;9.212;2023-06-22T01:07:54;17.37;;;10.50;;
286;SDS011;127;48.770;9.212;2023-06-22T01:10:34;18.13;;;10.70;;
286;SDS011;127;48.770;9.212;2023-06-22T01:13:10;17.27;;;9.73;;
286;SDS011;127;48.770;9.212;2023-06-22T01:15:44;18.53;;;10.43;;
286;SDS011;127;48.770;9.212;2023-06-22T01:18:19;18.30;;;10.13;;
286;SDS011;127;48.770;9.212;2023-06-22T01:20:51;20.30;;;10.20;;
286;SDS011;127;48.770;9.212;2023-06-22T01:23:26;33.90;;;11.50;;
286;SDS011;127;48.770;9.212;2023-06-22T01:26:01;18.60;;;10.10;;
286;SDS011;127;48.770;9.212;2023-06-22T01:28:46;17.50;;;9.80;;
286;SDS011;127;48.770;9.212;2023-06-22T01:31:18;20.47;;;11.63;;
286;SDS011;127;48.770;9.212;2023-06-22T01:33:51;19.57;;;10.30;;
286;SDS011;127;48.770;9.212;2023-06-22T01:36:23;21.50;;;9.47;;
286;SDS011;127;48.770;9.212;2023-06-22T01:38:53;15.90;;;9.60;;
286;SDS011;127;48.770;9.212;2023-06-22T01:41:25;17.37;;;9.93;;
286;SDS011;127;48.770;9.212;2023-06-22T01:44:02;18.40;;;10.53;;
286;SDS011;127;48.770;9.212;2023-06-22T01:46:33;18.30;;;9.17;;
286;SDS011;127;48.770;9.212;2023-06-22T01:49:03;16.07;;;9.40;;
286;SDS011;127;48.770;9.212;2023-06-22T01:51:33;27.23;;;11.10;;
286;SDS011;127;48.770;9.212;2023-06-22T01:54:02;18.07;;;10.07;;
286;SDS011;127;48.770;9.212;2023-06-22T01:56:34;28.53;;;11.90;;
286;SDS011;127;48.770;9.212;2023-06-22T01:59:12;18.53;;;9.43;;
286;SDS011;127;48.770;9.212;2023-06-22T02:01:54;23.77;;;11.03;;
286;SDS011;127;48.770;9.212;2023-06-22T02:04:32;18.20;;;9.97;;
286;SDS011;127;48.770;9.212;2023-06-22T02:07:09;17.70;;;11.13;;
286;SDS011;127;48.770;9.212;2023-06-22T02:09:44;22.70;;;11.40;;
286;SDS011;127;48.770;9.212;2023-06-22T02:12:17;21.90;;;13.20;;
286;SDS011;127;48.770;9.212;2023-06-22T02:15:02;22.27;;;11.43;;
286;SDS011;127;48.770;9.212;2023-06-22T02:17:33;31.03;;;15.03;;
286;SDS011;127;48.770;9.212;2023-06-22T02:20:02;28.60;;;13.60;;
286;SDS011;127;48.770;9.212;2023-06-22T02:22:33;22.87;;;11.53;;
286;SDS011;127;48.770;9.212;2023-06-22T02:25:02;26.27;;;13.37;;
286;SDS011;127;48.770;9.212;2023-06-22T02:27:31;20.33;;;11.67;;
286;SDS011;127;48.770;9.212;2023-06-22T02:30:05;21.30;;;11.40;;
286;SDS011;127;48.770;9.212;2023-06-22T02:32:36;24.33;;;11.80;;
286;SDS011;127;48.770;9.212;2023-06-22T02:35:13;22.90;;;11.80;;
286;SDS011;127;48.770;9.212;2023-06-22T02:37:44;21.80;;;12.47;;
286;SDS011;127;48.770;9.212;2023-06-22T02:40:12;19.77;;;11.30;;
286;SDS011;127;48.770;9.212;2023-06-22T02:42:56;22.03;;;12.03;;
286;SDS011;127;48.770;9.212;2023-06-22T02:45:30;20.77;;;11.20;;
286;SDS011;127;48.770;9.212;2023-06-22T02:47:59;21.00;;;11.33;;
286;SDS011;127;48.770;9.212;2023-06-22T02:50:27;20.83;;;12.00;;
286;SDS011;127;48.770;9.212;2023-06-22T02:52:56;25.93;;;12.27;;
286;SDS011;127;48.770;9.212;2023-06-22T02:55:25;23.53;;;11.73;;
286;SDS011;127;48.770;9.212;2023-06-22T02:57:53;18.27;;;11.10;;
286;SDS011;127;48.770;9.212;2023-06-22T03:00:24;21.90;;;11.60;;
286;SDS011;127;48.770;9.212;2023-06-22T03:02:58;30.90;;;12.23;;
286;SDS011;127;48.770;9.212;2023-06-22T03:05:26;29.33;;;13.00;;
286;SDS011;127;48.770;9.212;2023-06-22T03:07:55;20.43;;;12.30;;
286;SDS011;127;48.770;9.212;2023-06-22T03:10:25;19.93;;;12.07;;
286;SDS011;127;48.770;9.212;2023-06-22T03:12:56;23.90;;;12.70;;
286;SDS011;127;48.770;9.212;2023-06-22T03:15:31;20.50;;;13.00;;
286;SDS011;127;48.770;9.212;2023-06-22T03:18:03;18.90;;;12.43;;
286;SDS011;127;48.770;9.212;2023-06-22T03:20:32;24.80;;;13.80;;
286;SDS011;127;48.770;9.212;2023-06-22T03:23:00;24.73;;;13.20;;
286;SDS011;127;48.770;9.212;2023-06-22T03:25:30;24.90;;;14.03;;
286;SDS011;127;48.770;9.212;2023-06-22T03:28:08;22.83;;;13.10;;
286;SDS011;127;48.770;9.212;2023-06-22T03:30:39;24.77;;;13.40;;
286;SDS011;127;48.770;9.212;2023-06-22T03:33:10;28.13;;;14.67;;
286;SDS011;127;48.770;9.212;2023-06-22T03:35:39;30.40;;;14.57;;
286;SDS011;127;48.770;9.212;2023-06-22T03:38:08;26.73;;;14.53;;
286;SDS011;127;48.770;9.212;2023-06-22T03:40:38;24.83;;;13.20;;
286;SDS011;127;48.770;9.212;2023-06-22T03:43:07;32.17;;;15.23;;
286;SDS011;127;48.770;9.212;2023-06-22T03:45:38;25.87;;;15.00;;
286;SDS011;127;48.770;9.212;2023-06-22T03:48:06;21.60;;;13.77;;
286;SDS011;127;48.770;9.212;2023-06-22T03:50:38;22.33;;;12.77;;
286;SDS011;127;48.770;9.212;2023-06-22T03:53:09;33.03;;;15.17;;
286;SDS011;127;48.770;9.212;2023-06-22T03:55:40;22.97;;;14.40;;
286;SDS011;127;48.770;9.212;2023-06-22T03:58:15;19.10;;;11.90;;
286;SDS011;127;48.770;9.212;2023-06-22T04:00:44;24.83;;;14.47;;
286;SDS011;127;48.770;9.212;2023-06-22T04:03:16;19.70;;;13.07;;
286;SDS011;127;48.770;9.212;2023-06-22T04:05:48;19.20;;;11.83;;
286;SDS011;127;48.770;9.212;2023-06-22T04:08:17;23.50;;;13.33;;
286;SDS011;127;48.770;9.212;2023-06-22T04:10:48;24.73;;;13.40;;
286;SDS011;127;48.770;9.212;2023-06-22T04:13:18;21.03;;;12.67;;
286;SDS011;127;48.770;9.212;2023-06-22T04:15:51;22.53;;;12.73;;
286;SDS011;127;48.770;9.212;2023-06-22T04:18:23;17.63;;;11.40;;
286;SDS011;127;48.770;9.212;2023-06-22T04:20:51;24.40;;;12.30;;
286;SDS011;127;48.770;9.212;2023-06-22T04:23:25;16.87;;;10.20;;
286;SDS011;127;48.770;9.212;2023-06-22T04:25:54;21.30;;;10.23;;
286;SDS011;127;48.770;9.212;2023-06-22T04:28:23;19.67;;;11.57;;
286;SDS011;127;48.770;9.212;2023-06-22T04:31:00;17.80;;;10.87;;
286;SDS011;127;48.770;9.212;2023-06-22T04:33:31;18.00;;;10.53;;
286;SDS011;127;48.770;9.212;2023-06-22T04:36:05;20.00;;;10.93;;
286;SDS011;127;48.770;9.212;2023-06-22T04:38:38;15.87;;;9.90;;
286;SDS011;127;48.770;9.212;2023-06-22T04:41:09;18.87;;;10.80;;
286;SDS011;127;48.770;9.212;2023-06-22T04:43:39;17.60;;;10.20;;
286;SDS011;127;48.770;9.212;2023-06-22T04:46:08;17.43;;;10.53;;
286;SDS011;127;48.770;9.212;2023-06-22T04:48:39;19.03;;;10.00;;
286;SDS011;127;48.770;9.212;2023-06-22T04:51:09;21.07;;;10.50;;
286;SDS011;127;48.770;9.212;2023-06-22T04:53:38;16.40;;;9.90;;
286;SDS011;127;48.770;9.212;2023-06-22T04:56:07;22.77;;;12.20;;
286;SDS011;127;48.770;9.212;2023-06-22T04:58:37;21.60;;;11.33;;
286;SDS011;127;48.770;9.212;2023-06-22T05:01:13;16.60;;;10.33;;
286;SDS011;127;48.770;9.212;2023-06-22T05:03:45;23.20;;;13.87;;
286;SDS011;127;48.770;9.212;2023-06-22T05:06:17;38.27;;;14.93;;
286;SDS011;127;48.770;9.212;2023-06-22T05:09:01;23.70;;;13.07;;
286;SDS011;127;48.770;9.212;2023-06-22T05:11:34;29.07;;;14.07;;
286;SDS011;127;48.770;9.212;2023-06-22T05:14:14;25.83;;;14.03;;
286;SDS011;127;48.770;9.212;2023-06-22T05:16:46;25.53;;;14.20;;
286;SDS011;127;48.770;9.212;2023-06-22T05:19:47;21.33;;;11.57;;
286;SDS011;127;48.770;9.212;2023-06-22T05:22:17;33.63;;;13.50;;
286;SDS011;127;48.770;9.212;2023-06-22T05:24:49;22.13;;;13.40;;
286;SDS011;127;48.770;9.212;2023-06-22T05:33:51;21.97;;;12.83;;
286;SDS011;127;48.770;9.212;2023-06-22T05:36:32;21.27;;;12.47;;
286;SDS011;127;48.770;9.212;2023-06-22T05:43:14;22.10;;;12.00;;
286;SDS011;127;48.770;9.212;2023-06-22T05:49:31;20.93;;;11.50;;
286;SDS011;127;48.770;9.212;2023-06-22T05:52:02;24.87;;;12.00;;
286;SDS011;127;48.770;9.212;2023-06-22T05:54:32;24.70;;;12.07;;
286;SDS011;127;48.770;9.212;2023-06-22T05:57:00;18.50;;;10.00;;
286;SDS011;127;48.770;9.212;2023-06-22T05:59:29;24.30;;;10.87;;
286;SDS011;127;48.770;9.212;2023-06-22T06:01:58;18.90;;;9.57;;
286;SDS011;127;48.770;9.212;2023-06-22T06:04:27;22.50;;;9.40;;
286;SDS011;127;48.770;9.212;2023-06-22T06:06:56;22.30;;;9.67;;
286;SDS011;127;48.770;9.212;2023-06-22T06:09:32;20.63;;;9.40;;
286;SDS011;127;48.770;9.212;2023-06-22T06:12:01;18.90;;;9.77;;
286;SDS011;127;48.770;9.212;2023-06-22T06:14:30;17.20;;;8.80;;
286;SDS011;127;48.770;9.212;2023-06-22T06:16:59;20.60;;;9.57;;
286;SDS011;127;48.770;9.212;2023-06-22T06:19:34;15.33;;;8.23;;
286;SDS011;127;48.770;9.212;2023-06-22T06:22:08;16.40;;;7.97;;
286;SDS011;127;48.770;9.212;2023-06-22T06:24:39;16.60;;;8.30;;
286;SDS011;127;48.770;9.212;2023-06-22T06:27:14;16.70;;;8.80;;
286;SDS011;127;48.770;9.212;2023-06-22T06:29:55;14.33;;;7.97;;
286;SDS011;127;48.770;9.212;2023-06-22T06:32:32;14.43;;;7.97;;
286;SDS011;127;48.770;9.212;2023-06-22T06:35:27;16.40;;;8.20;;
286;SDS011;127;48.770;9.212;2023-06-22T06:38:01;20.17;;;8.20;;
286;SDS011;127;48.770;9.212;2023-06-22T06:40:30;12.70;;;7.60;;
286;SDS011;127;48.770;9.212;2023-06-22T06:42:59;13.63;;;7.93;;
286;SDS011;127;48.770;9.212;2023-06-22T06:45:28;16.07;;;7.97;;
286;SDS011;127;48.770;9.212;2023-06-22T06:47:59;13.10;;;7.70;;
286;SDS011;127;48.770;9.212;2023-06-22T06:50:28;16.77;;;7.80;;
286;SDS011;127;48.770;9.212;2023-06-22T06:53:02;14.50;;;8.00;;
286;SDS011;127;48.770;9.212;2023-06-22T06:55:31;13.40;;;7.50;;
286;SDS011;127;48.770;9.212;2023-06-22T06:58:01;13.73;;;7.40;;
286;SDS011;127;48.770;9.212;2023-06-22T07:00:32;17.47;;;8.80;;
286;SDS011;127;48.770;9.212;2023-06-22T07:03:02;17.90;;;9.20;;
286;SDS011;127;48.770;9.212;2023-06-22T07:05:33;18.00;;;8.17;;
286;SDS011;127;48.770;9.212;2023-06-22T07:08:07;19.77;;;8.80;;
286;SDS011;127;48.770;9.212;2023-06-22T07:10:36;23.30;;;8.13;;
286;SDS011;127;48.770;9.212;2023-06-22T07:13:05;15.90;;;7.70;;
286;SDS011;127;48.770;9.212;2023-06-22T07:15:33;15.03;;;7.80;;
286;SDS011;127;48.770;9.212;2023-06-22T07:18:05;14.03;;;7.97;;
286;SDS011;127;48.770;9.212;2023-06-22T07:20:34;15.33;;;8.07;;
286;SDS011;127;48.770;9.212;2023-06-22T07:23:07;13.47;;;7.27;;
286;SDS011;127;48.770;9.212;2023-06-22T07:25:38;18.93;;;7.60;;
286;SDS011;127;48.770;9.212;2023-06-22T07:28:08;16.90;;;7.20;;
286;SDS011;127;48.770;9.212;2023-06-22T07:30:37;17.67;;;6.87;;
286;SDS011;127;48.770;9.212;2023-06-22T07:33:06;14.70;;;6.73;;
286;SDS011;127;48.770;9.212;2023-06-22T07:35:34;13.93;;;7.40;;
286;SDS011;127;48.770;9.212;2023-06-22T07:38:07;17.20;;;7.80;;
286;SDS011;127;48.770;9.212;2023-06-22T07:40:36;11.83;;;5.87;;
286;SDS011;127;48.770;9.212;2023-06-22T07:43:06;12.73;;;7.17;;
286;SDS011;127;48.770;9.212;2023-06-22T07:45:35;15.70;;;6.93;;
286;SDS011;127;48.770;9.212;2023-06-22T07:48:07;8.63;;;5.60;;
286;SDS011;127;48.770;9.212;2023-06-22T07:50:40;22.10;;;5.70;;
286;SDS011;127;48.770;9.212;2023-06-22T07:53:12;9.30;;;5.77;;
286;SDS011;127;48.770;9.212;2023-06-22T07:55:43;10.60;;;6.30;;
286;SDS011;127;48.770;9.212;2023-06-22T07:58:14;17.73;;;7.57;;
286;SDS011;127;48.770;9.212;2023-06-22T08:00:45;17.23;;;6.43;;
286;SDS011;127;48.770;9.212;2023-06-22T08:03:14;14.37;;;5.97;;
286;SDS011;127;48.770;9.212;2023-06-22T08:05:43;13.33;;;6.20;;
286;SDS011;127;48.770;9.212;2023-06-22T08:08:19;14.00;;;6.70;;
286;SDS011;127;48.770;9.212;2023-06-22T08:10:50;13.00;;;7.03;;
286;SDS011;127;48.770;9.212;2023-06-22T08:13:18;18.80;;;7.30;;
286;SDS011;127;48.770;9.212;2023-06-22T08:15:47;11.67;;;6.50;;
286;SDS011;127;48.770;9.212;2023-06-22T08:18:16;16.00;;;5.97;;
286;SDS011;127;48.770;9.212;2023-06-22T08:20:44;18.67;;;6.70;;
286;SDS011;127;48.770;9.212;2023-06-22T08:23:18;14.07;;;5.60;;
286;SDS011;127;48.770;9.212;2023-06-22T08:25:48;20.73;;;6.67;;
286;SDS011;127;48.770;9.212;2023-06-22T08:28:18;12.97;;;6.13;;
286;SDS011;127;48.770;9.212;2023-06-22T08:30:48;15.43;;;5.97;;
286;SDS011;127;48.770;9.212;2023-06-22T08:33:18;20.93;;;6.70;;
286;SDS011;127;48.770;9.212;2023-06-22T08:35:50;12.40;;;5.73;;
286;SDS011;127;48.770;9.212;2023-06-22T08:38:21;18.43;;;6.00;;
286;SDS011;127;48.770;9.212;2023-06-22T08:40:58;18.90;;;5.70;;
286;SDS011;127;48.770;9.212;2023-06-22T08:43:28;13.53;;;5.80;;
286;SDS011;127;48.770;9.212;2023-06-22T08:46:00;14.07;;;5.53;;
286;SDS011;127;48.770;9.212;2023-06-22T08:48:29;11.40;;;5.87;;
286;SDS011;127;48.770;9.212;2023-06-22T08:51:01;14.03;;;6.90;;
286;SDS011;127;48.770;9.212;2023-06-22T08:53:37;10.67;;;6.53;;
286;SDS011;127;48.770;9.212;2023-06-22T08:56:07;16.07;;;6.93;;
286;SDS011;127;48.770;9.212;2023-06-22T08:58:35;13.93;;;5.87;;
286;SDS011;127;48.770;9.212;2023-06-22T09:01:04;13.27;;;6.10;;
286;SDS011;127;48.770;9.212;2023-06-22T09:03:33;9.83;;;6.07;;
286;SDS011;127;48.770;9.212;2023-06-22T09:06:02;20.80;;;6.63;;
286;SDS011;127;48.770;9.212;2023-06-22T09:08:31;13.80;;;5.93;;
286;SDS011;127;48.770;9.212;2023-06-22T09:11:03;18.13;;;7.03;;
286;SDS011;127;48.770;9.212;2023-06-22T09:13:32;21.97;;;6.80;;
286;SDS011;127;48.770;9.212;2023-06-22T09:16:02;18.63;;;6.17;;
286;SDS011;127;48.770;9.212;2023-06-22T09:18:33;16.60;;;6.77;;
286;SDS011;127;48.770;9.212;2023-06-22T09:21:02;12.73;;;6.50;;
286;SDS011;127;48.770;9.212;2023-06-22T09:23:31;14.60;;;6.37;;
286;SDS011;127;48.770;9.212;2023-06-22T09:26:06;15.70;;;6.10;;
286;SDS011;127;48.770;9.212;2023-06-22T09:28:36;13.67;;;6.40;;
286;SDS011;127;48.770;9.212;2023-06-22T09:31:06;18.90;;;8.03;;
286;SDS011;127;48.770;9.212;2023-06-22T09:33:35;12.73;;;6.27;;
286;SDS011;127;48.770;9.212;2023-06-22T09:36:04;15.83;;;6.20;;
286;SDS011;127;48.770;9.212;2023-06-22T09:38:34;20.30;;;7.27;;
286;SDS011;127;48.770;9.212;2023-06-22T09:41:08;14.33;;;6.50;;
286;SDS011;127;48.770;9.212;2023-06-22T09:43:37;12.47;;;7.20;;
286;SDS011;127;48.770;9.212;2023-06-22T09:46:08;20.43;;;6.60;;
286;SDS011;127;48.770;9.212;2023-06-22T09:48:38;18.50;;;6.20;;
286;SDS011;127;48.770;9.212;2023-06-22T09:51:06;12.80;;;6.60;;
286;SDS011;127;48.770;9.212;2023-06-22T09:53:35;34.60;;;7.77;;
286;SDS011;127;48.770;9.212;2023-06-22T09:56:04;12.67;;;6.77;;
286;SDS011;127;48.770;9.212;2023-06-22T09:58:38;16.03;;;6.40;;
286;SDS011;127;48.770;9.212;2023-06-22T10:01:07;13.40;;;7.40;;
286;SDS011;127;48.770;9.212;2023-06-22T10:03:36;13.80;;;7.13;;
286;SDS011;127;48.770;9.212;2023-06-22T10:06:06;12.47;;;6.80;;
286;SDS011;127;48.770;9.212;2023-06-22T10:08:36;11.93;;;6.20;;
286;SDS011;127;48.770;9.212;2023-06-22T10:11:07;21.30;;;7.77;;
286;SDS011;127;48.770;9.212;2023-06-22T10:13:41;15.73;;;6.83;;
286;SDS011;127;48.770;9.212;2023-06-22T10:16:10;13.60;;;7.70;;
286;SDS011;127;48.770;9.212;2023-06-22T10:18:39;15.67;;;7.07;;
286;SDS011;127;48.770;9.212;2023-06-22T10:21:07;22.53;;;7.20;;
286;SDS011;127;48.770;9.212;2023-06-22T10:23:36;21.20;;;6.33;;
286;SDS011;127;48.770;9.212;2023-06-22T10:26:05;18.53;;;6.60;;
286;SDS011;127;48.770;9.212;2023-06-22T10:28:33;14.97;;;6.60;;
286;SDS011;127;48.770;9.212;2023-06-22T10:31:07;18.87;;;7.30;;
286;SDS011;127;48.770;9.212;2023-06-22T10:33:36;19.57;;;6.90;;
286;SDS011;127;48.770;9.212;2023-06-22T10:36:06;17.40;;;7.50;;
286;SDS011;127;48.770;9.212;2023-06-22T10:38:35;13.20;;;6.73;;
286;SDS011;127;48.770;9.212;2023-06-22T10:41:04;13.90;;;7.20;;
286;SDS011;127;48.770;9.212;2023-06-22T10:43:33;16.70;;;7.00;;
286;SDS011;127;48.770;9.212;2023-06-22T10:46:01;19.93;;;7.33;;
286;SDS011;127;48.770;9.212;2023-06-22T10:48:37;17.00;;;6.53;;
286;SDS011;127;48.770;9.212;2023-06-22T10:51:09;19.30;;;7.53;;
286;SDS011;127;48.770;9.212;2023-06-22T10:53:41;20.20;;;7.67;;
286;SDS011;127;48.770;9.212;2023-06-22T10:56:12;16.77;;;6.77;;
286;SDS011;127;48.770;9.212;2023-06-22T10:58:41;20.47;;;7.70;;
286;SDS011;127;48.770;9.212;2023-06-22T11:01:11;15.63;;;6.40;;
286;SDS011;127;48.770;9.212;2023-06-22T11:03:42;16.77;;;7.00;;
286;SDS011;127;48.770;9.212;2023-06-22T11:06:11;14.37;;;7.00;;
286;SDS011;127;48.770;9.212;2023-06-22T11:08:40;13.53;;;6.93;;
286;SDS011;127;48.770;9.212;2023-06-22T11:11:11;19.03;;;7.33;;
286;SDS011;127;48.770;9.212;2023-06-22T11:13:41;15.67;;;6.97;;
286;SDS011;127;48.770;9.212;2023-06-22T11:16:10;13.70;;;7.13;;
286;SDS011;127;48.770;9.212;2023-06-22T11:18:51;16.70;;;7.67;;
286;SDS011;127;48.770;9.212;2023-06-22T11:21:20;12.17;;;7.60;;
286;SDS011;127;48.770;9.212;2023-06-22T11:23:50;15.67;;;7.17;;
286;SDS011;127;48.770;9.212;2023-06-22T11:26:18;18.00;;;7.90;;
286;SDS011;127;48.770;9.212;2023-06-22T11:28:48;14.13;;;7.00;;
286;SDS011;127;48.770;9.212;2023-06-22T11:31:16;19.87;;;7.60;;
286;SDS011;127;48.770;9.212;2023-06-22T11:33:45;14.13;;;7.20;;
286;SDS011;127;48.770;9.212;2023-06-22T11:36:20;15.37;;;7.00;;
286;SDS011;127;48.770;9.212;2023-06-22T11:38:48;21.17;;;8.77;;
286;SDS011;127;48.770;9.212;2023-06-22T11:41:17;18.20;;;7.40;;
286;SDS011;127;48.770;9.212;2023-06-22T11:43:47;18.73;;;7.87;;
286;SDS011;127;48.770;9.212;2023-06-22T11:46:22;18.57;;;7.10;;
286;SDS011;127;48.770;9.212;2023-06-22T11:48:50;16.53;;;6.80;;
286;SDS011;127;48.770;9.212;2023-06-22T11:51:21;18.80;;;7.00;;
286;SDS011;127;48.770;9.212;2023-06-22T11:53:50;15.07;;;7.80;;
286;SDS011;127;48.770;9.212;2023-06-22T11:56:19;15.43;;;6.90;;
286;SDS011;127;48.770;9.212;2023-06-22T11:58:51;13.13;;;7.00;;
286;SDS011;127;48.770;9.212;2023-06-22T12:01:20;16.80;;;7.70;;
286;SDS011;127;48.770;9.212;2023-06-22T12:03:49;23.00;;;7.33;;
286;SDS011;127;48.770;9.212;2023-06-22T12:06:18;19.33;;;8.93;;
286;SDS011;127;48.770;9.212;2023-06-22T12:08:49;19.33;;;6.80;;
286;SDS011;127;48.770;9.212;2023-06-22T12:11:18;12.63;;;6.87;;
286;SDS011;127;48.770;9.212;2023-06-22T12:13:46;17.47;;;7.00;;
286;SDS011;127;48.770;9.212;2023-06-22T12:16:17;23.43;;;7.83;;
286;SDS011;127;48.770;9.212;2023-06-22T12:18:47;15.00;;;6.57;;
286;SDS011;127;48.770;9.212;2023-06-22T12:21:16;20.23;;;9.03;;
286;SDS011;127;48.770;9.212;2023-06-22T12:23:50;25.80;;;7.50;;
286;SDS011;127;48.770;9.212;2023-06-22T12:26:19;17.67;;;7.37;;
286;SDS011;127;48.770;9.212;2023-06-22T12:28:47;18.03;;;7.47;;
286;SDS011;127;48.770;9.212;2023-06-22T12:31:16;19.77;;;7.27;;
286;SDS011;127;48.770;9.212;2023-06-22T12:33:45;18.07;;;7.33;;
286;SDS011;127;48.770;9.212;2023-06-22T12:36:14;18.70;;;8.27;;
286;SDS011;127;48.770;9.212;2023-06-22T12:38:50;21.20;;;8.17;;
286;SDS011;127;48.770;9.212;2023-06-22T12:41:19;23.40;;;7.87;;
286;SDS011;127;48.770;9.212;2023-06-22T12:43:48;16.97;;;6.60;;
286;SDS011;127;48.770;9.212;2023-06-22T12:46:16;17.90;;;7.50;;
286;SDS011;127;48.770;9.212;2023-06-22T12:48:48;16.90;;;7.93;;
286;SDS011;127;48.770;9.212;2023-06-22T12:51:20;19.27;;;8.70;;
286;SDS011;127;48.770;9.212;2023-06-22T12:53:52;16.40;;;7.83;;
286;SDS011;127;48.770;9.212;2023-06-22T12:56:23;16.43;;;7.60;;
286;SDS011;127;48.770;9.212;2023-06-22T12:58:55;16.77;;;6.90;;
286;SDS011;127;48.770;9.212;2023-06-22T13:01:27;18.83;;;9.30;;
286;SDS011;127;48.770;9.212;2023-06-22T13:03:56;20.87;;;7.20;;
286;SDS011;127;48.770;9.212;2023-06-22T13:06:25;20.80;;;7.90;;
286;SDS011;127;48.770;9.212;2023-06-22T13:08:57;28.97;;;7.40;;
286;SDS011;127;48.770;9.212;2023-06-22T13:11:28;22.63;;;7.87;;
286;SDS011;127;48.770;9.212;2023-06-22T13:13:59;20.20;;;7.80;;
286;SDS011;127;48.770;9.212;2023-06-22T13:16:30;21.80;;;7.43;;
286;SDS011;127;48.770;9.212;2023-06-22T13:18:59;14.00;;;7.03;;
286;SDS011;127;48.770;9.212;2023-06-22T13:21:27;13.97;;;7.40;;
286;SDS011;127;48.770;9.212;2023-06-22T13:24:02;16.33;;;7.53;;
286;SDS011;127;48.770;9.212;2023-06-22T13:26:31;23.27;;;7.43;;
286;SDS011;127;48.770;9.212;2023-06-22T13:29:00;26.70;;;8.87;;
286;SDS011;127;48.770;9.212;2023-06-22T13:31:28;36.70;;;8.23;;
286;SDS011;127;48.770;9.212;2023-06-22T13:33:57;17.50;;;7.37;;
286;SDS011;127;48.770;9.212;2023-06-22T13:36:26;18.00;;;8.20;;
286;SDS011;127;48.770;9.212;2023-06-22T13:38:55;23.43;;;7.80;;
286;SDS011;127;48.770;9.212;2023-06-22T13:41:27;18.83;;;8.20;;
286;SDS011;127;48.770;9.212;2023-06-22T13:43:55;20.30;;;8.33;;
286;SDS011;127;48.770;9.212;2023-06-22T13:46:26;18.03;;;7.43;;
286;SDS011;127;48.770;9.212;2023-06-22T13:48:54;12.87;;;7.13;;
286;SDS011;127;48.770;9.212;2023-06-22T13:51:23;20.53;;;8.23;;
286;SDS011;127;48.770;9.212;2023-06-22T13:53:52;18.00;;;8.10;;
286;SDS011;127;48.770;9.212;2023-06-22T13:56:23;14.23;;;7.23;;
286;SDS011;127;48.770;9.212;2023-06-22T13:58:54;22.33;;;8.50;;
286;SDS011;127;48.770;9.212;2023-06-22T14:01:24;19.30;;;7.43;;
286;SDS011;127;48.770;9.212;2023-06-22T14:03:53;20.20;;;6.70;;
286;SDS011;127;48.770;9.212;2023-06-22T14:06:21;19.93;;;7.60;;
286;SDS011;127;48.770;9.212;2023-06-22T14:08:50;16.73;;;6.77;;
286;SDS011;127;48.770;9.212;2023-06-22T14:11:19;14.67;;;7.30;;
286;SDS011;127;48.770;9.212;2023-06-22T14:13:56;20.33;;;7.20;;
286;SDS011;127;48.770;9.212;2023-06-22T14:16:25;19.57;;;6.73;;
286;SDS011;127;48.770;9.212;2023-06-22T14:18:55;22.77;;;6.77;;
286;SDS011;127;48.770;9.212;2023-06-22T14:21:25;18.83;;;6.93;;
286;SDS011;127;48.770;9.212;2023-06-22T14:23:56;27.37;;;7.37;;
286;SDS011;127;48.770;9.212;2023-06-22T14:26:25;20.70;;;7.13;;
286;SDS011;127;48.770;9.212;2023-06-22T14:28:56;27.10;;;6.17;;
286;SDS011;127;48.770;9.212;2023-06-22T14:31:24;14.97;;;6.63;;
286;SDS011;127;48.770;9.212;2023-06-22T14:33:53;17.17;;;7.30;;
286;SDS011;127;48.770;9.212;2023-06-22T14:36:22;16.70;;;5.80;;
286;SDS011;127;48.770;9.212;2023-06-22T14:38:54;24.73;;;6.70;;
286;SDS011;127;48.770;9.212;2023-06-22T14:41:23;16.40;;;5.60;;
286;SDS011;127;48.770;9.212;2023-06-22T14:43:52;13.27;;;5.60;;
286;SDS011;127;48.770;9.212;2023-06-22T14:46:23;15.20;;;5.90;;
286;SDS011;127;48.770;9.212;2023-06-22T14:48:52;14.23;;;5.93;;
286;SDS011;127;48.770;9.212;2023-06-22T14:51:21;17.77;;;5.73;;
286;SDS011;127;48.770;9.212;2023-06-22T14:53:51;21.17;;;5.10;;
286;SDS011;127;48.770;9.212;2023-06-22T14:56:20;14.20;;;4.00;;
286;SDS011;127;48.770;9.212;2023-06-22T14:58:53;14.77;;;4.60;;
286;SDS011;127;48.770;9.212;2023-06-22T15:01:24;12.20;;;3.73;;
286;SDS011;127;48.770;9.212;2023-06-22T15:03:53;16.00;;;4.53;;
286;SDS011;127;48.770;9.212;2023-06-22T15:06:21;22.40;;;5.33;;
286;SDS011;127;48.770;9.212;2023-06-22T15:08:52;21.03;;;5.00;;
286;SDS011;127;48.770;9.212;2023-06-22T15:11:20;10.73;;;4.80;;
286;SDS011;127;48.770;9.212;2023-06-22T15:13:49;14.30;;;4.30;;
286;SDS011;127;48.770;9.212;2023-06-22T15:16:18;18.03;;;4.97;;
286;SDS011;127;48.770;9.212;2023-06-22T15:18:49;13.57;;;4.70;;
286;SDS011;127;48.770;9.212;2023-06-22T15:21:18;14.43;;;4.40;;
286;SDS011;127;48.770;9.212;2023-06-22T15:23:46;21.47;;;4.93;;
286;SDS011;127;48.770;9.212;2023-06-22T15:26:15;10.53;;;3.63;;
286;SDS011;127;48.770;9.212;2023-06-22T15:28:44;13.37;;;3.93;;
286;SDS011;127;48.770;9.212;2023-06-22T15:31:13;17.90;;;5.10;;
286;SDS011;127;48.770;9.212;2023-06-22T15:33:41;18.63;;;4.27;;
286;SDS011;127;48.770;9.212;2023-06-22T15:36:13;18.50;;;4.20;;
286;SDS011;127;48.770;9.212;2023-06-22T15:38:41;20.73;;;4.73;;
286;SDS011;127;48.770;9.212;2023-06-22T15:41:13;20.80;;;4.70;;
286;SDS011;127;48.770;9.212;2023-06-22T15:43:47;12.87;;;5.20;;
286;SDS011;127;48.770;9.212;2023-06-22T15:46:16;18.33;;;4.83;;
286;SDS011;127;48.770;9.212;2023-06-22T15:48:46;24.07;;;5.70;;
286;SDS011;127;48.770;9.212;2023-06-22T15:51:17;13.90;;;4.97;;
286;SDS011;127;48.770;9.212;2023-06-22T15:53:46;18.10;;;4.03;;
286;SDS011;127;48.770;9.212;2023-06-22T15:56:15;18.53;;;5.23;;
286;SDS011;127;48.770;9.212;2023-06-22T15:58:45;17.80;;;3.90;;
286;SDS011;127;48.770;9.212;2023-06-22T16:01:17;18.20;;;5.20;;
286;SDS011;127;48.770;9.212;2023-06-22T16:03:46;17.43;;;5.20;;